createdAt,value
2022-09-22T00:01:31.655Z,10.12
2022-09-22T00:04:03.802Z,10.16
2022-09-22T00:06:37.362Z,10.24
2022-09-22T00:09:07.221Z,10.27
2022-09-22T00:11:47.544Z,10.30
2022-09-22T00:14:25.445Z,10.32
2022-09-22T00:17:03.582Z,10.42
2022-09-22T00:19:37.614Z,10.43
2022-09-22T00:22:06.354Z,10.47
2022-09-22T00:24:34.989Z,10.58
2022-09-22T00:27:02.300Z,10.63
2022-09-22T00:29:30.820Z,10.62
2022-09-22T00:32:00.370Z,10.66
2022-09-22T00:34:31.023Z,10.71
2022-09-22T00:36:58.473Z,10.66
2022-09-22T00:39:27.331Z,10.65
2022-09-22T00:41:54.542Z,10.70
2022-09-22T00:44:21.823Z,10.71
2022-09-22T00:46:58.101Z,10.69
2022-09-22T00:49:43.513Z,10.71
2022-09-22T00:52:17.108Z,10.76
2022-09-22T00:54:44.658Z,10.76
2022-09-22T00:57:22.638Z,10.73
2022-09-22T00:59:52.833Z,10.70
2022-09-22T01:02:21.209Z,10.64
2022-09-22T01:04:52.160Z,10.65
2022-09-22T01:07:28.997Z,10.66
2022-09-22T01:09:58.100Z,10.67
2022-09-22T01:12:28.418Z,10.70
2022-09-22T01:15:25.003Z,10.70
2022-09-22T01:18:14.155Z,10.76
2022-09-22T01:21:11.353Z,10.82
2022-09-22T01:24:32.446Z,10.83
2022-09-22T01:27:43.035Z,10.76
2022-09-22T01:30:20.050Z,10.77
2022-09-22T01:33:24.681Z,10.82
2022-09-22T01:36:08.447Z,10.80
2022-09-22T01:38:50.929Z,10.82
2022-09-22T01:41:48.256Z,10.81
2022-09-22T01:44:25.374Z,10.84
2022-09-22T01:47:17.921Z,10.78
2022-09-22T01:49:55.204Z,10.88
2022-09-22T01:52:36.295Z,10.90
2022-09-22T01:55:16.349Z,10.94
2022-09-22T01:57:56.822Z,10.96
2022-09-22T02:00:24.695Z,10.90
2022-09-22T02:03:06.746Z,10.91
2022-09-22T02:05:42.962Z,10.91
2022-09-22T02:08:18.286Z,10.88
2022-09-22T02:10:48.662Z,10.88
2022-09-22T02:13:16.069Z,10.85
2022-09-22T02:16:02.021Z,10.88
2022-09-22T02:19:19.188Z,10.83
2022-09-22T02:21:48.540Z,10.94
2022-09-22T02:24:39.433Z,11.01
2022-09-22T02:27:36.442Z,11.01
2022-09-22T02:30:12.100Z,11.00
2022-09-22T02:32:46.300Z,11.05
2022-09-22T02:35:14.586Z,11.13
2022-09-22T02:37:54.835Z,11.13
2022-09-22T02:40:25.039Z,11.18
2022-09-22T02:43:22.031Z,11.18
2022-09-22T02:46:11.114Z,11.19
2022-09-22T02:48:54.116Z,11.21
2022-09-22T02:51:22.341Z,11.24
2022-09-22T02:53:49.459Z,11.25
2022-09-22T02:56:16.790Z,11.13
2022-09-22T02:58:44.124Z,11.09
2022-09-22T03:01:11.356Z,11.11
2022-09-22T03:03:38.598Z,11.11
2022-09-22T03:06:06.248Z,11.10
2022-09-22T03:08:33.430Z,11.07
2022-09-22T03:11:00.581Z,11.09
2022-09-22T03:13:29.226Z,11.12
2022-09-22T03:15:56.583Z,11.17
2022-09-22T03:18:23.842Z,11.16
2022-09-22T03:20:51.275Z,11.21
2022-09-22T03:23:18.508Z,11.21
2022-09-22T03:25:45.724Z,11.21
2022-09-22T03:28:13.072Z,11.20
2022-09-22T03:30:40.609Z,11.18
2022-09-22T03:33:07.880Z,11.16
2022-09-22T03:35:35.491Z,11.16
2022-09-22T03:38:02.742Z,11.13
2022-09-22T03:40:30.027Z,11.12
2022-09-22T03:42:57.529Z,11.10
2022-09-22T03:45:25.096Z,11.12
2022-09-22T03:47:53.394Z,11.07
2022-09-22T03:50:22.610Z,10.97
2022-09-22T03:52:50.126Z,10.93
2022-09-22T03:55:17.580Z,10.93
2022-09-22T03:57:45.379Z,10.91
2022-09-22T04:00:14.239Z,10.93
2022-09-22T04:02:41.787Z,10.94
2022-09-22T04:05:10.491Z,10.97
2022-09-22T04:07:37.913Z,10.94
2022-09-22T04:10:05.888Z,10.94
2022-09-22T04:12:33.554Z,10.93
2022-09-22T04:15:00.716Z,10.97
2022-09-22T04:17:27.973Z,11.00
2022-09-22T04:19:55.459Z,11.00
2022-09-22T04:22:22.876Z,10.99
2022-09-22T04:24:50.090Z,10.99
2022-09-22T04:27:20.579Z,10.91
2022-09-22T04:29:49.144Z,10.92
2022-09-22T04:32:18.502Z,10.93
2022-09-22T04:34:46.186Z,10.90
2022-09-22T04:37:13.759Z,10.94
2022-09-22T04:39:41.474Z,10.97
2022-09-22T04:42:09.234Z,10.93
2022-09-22T04:44:36.668Z,10.94
2022-09-22T04:47:04.912Z,10.99
2022-09-22T04:49:32.408Z,11.03
2022-09-22T04:51:59.648Z,11.04
2022-09-22T04:54:26.950Z,11.11
2022-09-22T04:56:54.382Z,11.15
2022-09-22T04:59:21.837Z,11.17
2022-09-22T05:01:49.286Z,11.21
2022-09-22T05:04:16.858Z,11.23
2022-09-22T05:06:44.066Z,11.32
2022-09-22T05:09:11.309Z,11.39
2022-09-22T05:11:39.603Z,11.48
2022-09-22T05:14:06.784Z,11.45
2022-09-22T05:16:34.154Z,11.42
2022-09-22T05:19:01.676Z,11.42
2022-09-22T05:21:28.992Z,11.46
2022-09-22T05:23:56.189Z,11.45
2022-09-22T05:26:23.589Z,11.47
2022-09-22T05:28:51.668Z,11.52
2022-09-22T05:31:19.639Z,11.60
2022-09-22T05:33:47.164Z,11.68
2022-09-22T05:36:14.675Z,11.75
2022-09-22T05:38:42.314Z,11.70
2022-09-22T05:41:10.908Z,11.80
2022-09-22T05:43:38.223Z,11.81
2022-09-22T05:46:05.702Z,11.87
2022-09-22T05:48:33.215Z,11.92
2022-09-22T05:51:00.694Z,11.98
2022-09-22T05:53:28.392Z,12.24
2022-09-22T05:55:57.145Z,12.24
2022-09-22T05:58:24.429Z,12.25
2022-09-22T06:00:51.663Z,12.40
2022-09-22T06:03:19.550Z,12.59
2022-09-22T06:05:46.866Z,12.66
2022-09-22T06:08:14.058Z,12.79
2022-09-22T06:10:42.306Z,13.09
2022-09-22T06:13:12.047Z,13.07
2022-09-22T06:15:39.559Z,13.17
2022-09-22T06:18:13.105Z,13.18
2022-09-22T06:20:43.036Z,13.26
2022-09-22T06:23:13.273Z,13.76
2022-09-22T06:25:40.595Z,13.99
2022-09-22T06:28:17.124Z,14.03
2022-09-22T06:30:44.614Z,14.01
2022-09-22T06:33:12.133Z,13.88
2022-09-22T06:35:43.221Z,13.80
2022-09-22T06:38:15.183Z,13.73
2022-09-22T06:40:43.786Z,13.85
2022-09-22T06:43:22.588Z,13.99
2022-09-22T06:45:53.343Z,13.84
2022-09-22T06:48:24.059Z,14.30
2022-09-22T06:50:54.438Z,14.55
2022-09-22T06:53:25.327Z,14.42
2022-09-22T06:55:54.238Z,14.30
2022-09-22T06:58:22.455Z,14.20
2022-09-22T07:00:51.163Z,14.31
2022-09-22T07:03:22.871Z,14.25
2022-09-22T07:06:00.996Z,14.18
2022-09-22T07:08:31.642Z,14.18
2022-09-22T07:11:08.163Z,14.28
2022-09-22T07:13:42.400Z,14.53
2022-09-22T07:16:17.704Z,14.63
2022-09-22T07:18:48.321Z,14.62
2022-09-22T07:21:23.356Z,14.91
2022-09-22T07:23:54.355Z,15.33
2022-09-22T07:26:40.952Z,15.35
2022-09-22T07:29:13.433Z,18.10
2022-09-22T07:31:42.055Z,17.41
2022-09-22T07:34:09.454Z,18.53
2022-09-22T07:36:40.114Z,18.02
2022-09-22T07:39:11.394Z,17.67
2022-09-22T07:41:43.528Z,16.98
2022-09-22T07:44:33.296Z,16.55
2022-09-22T07:47:02.084Z,16.45
2022-09-22T07:49:30.436Z,16.55
2022-09-22T07:51:58.172Z,18.93
2022-09-22T07:54:27.111Z,21.67
2022-09-22T07:57:06.776Z,27.93
2022-09-22T07:59:36.269Z,32.39
2022-09-22T08:02:03.687Z,34.31
2022-09-22T08:04:32.061Z,36.64
2022-09-22T08:06:59.288Z,35.12
2022-09-22T08:09:28.352Z,31.45
2022-09-22T08:11:55.912Z,32.39
2022-09-22T08:14:24.085Z,28.37
2022-09-22T08:16:53.628Z,26.71
2022-09-22T08:19:23.826Z,25.78
2022-09-22T08:21:54.423Z,25.56
2022-09-22T08:24:23.462Z,25.45
2022-09-22T08:26:53.794Z,25.15
2022-09-22T08:29:22.506Z,24.24
2022-09-22T08:31:51.393Z,23.81
2022-09-22T08:34:18.907Z,23.20
2022-09-22T08:36:48.386Z,22.51
2022-09-22T08:39:18.308Z,22.51
2022-09-22T08:42:09.468Z,21.55
2022-09-22T08:45:04.800Z,20.93
2022-09-22T08:48:07.370Z,20.39
2022-09-22T08:51:35.649Z,19.92
2022-09-22T08:54:04.366Z,20.30
2022-09-22T08:56:46.678Z,29.45
2022-09-22T08:59:23.215Z,29.34
2022-09-22T09:02:36.081Z,29.08
2022-09-22T09:05:34.345Z,31.27
2022-09-22T09:08:28.888Z,29.37
2022-09-22T09:11:25.128Z,26.94
2022-09-22T09:14:41.555Z,29.99
2022-09-22T09:17:21.125Z,27.24
2022-09-22T09:20:15.454Z,25.50
2022-09-22T09:22:52.843Z,25.03
2022-09-22T09:25:32.097Z,28.45
2022-09-22T09:28:06.139Z,29.10
2022-09-22T09:30:46.986Z,32.99
2022-09-22T09:33:38.078Z,32.61
2022-09-22T09:38:55.103Z,27.66
2022-09-22T09:41:31.382Z,26.48
2022-09-22T09:44:04.546Z,26.38
2022-09-22T09:47:03.320Z,26.38
2022-09-22T09:49:31.306Z,26.02
2022-09-22T09:52:02.066Z,26.01
2022-09-22T09:54:32.031Z,27.96
2022-09-22T09:57:11.243Z,27.90
2022-09-22T10:00:24.457Z,27.39
2022-09-22T10:03:15.496Z,27.52
2022-09-22T10:05:43.596Z,29.27
2022-09-22T10:08:20.293Z,29.30
2022-09-22T10:10:48.985Z,26.87
2022-09-22T10:13:26.414Z,25.90
2022-09-22T10:16:24.383Z,25.95
2022-09-22T10:19:03.682Z,26.64
2022-09-22T10:21:31.120Z,26.46
2022-09-22T10:24:00.601Z,27.17
2022-09-22T10:26:32.973Z,29.27
2022-09-22T10:29:21.187Z,35.09
2022-09-22T10:32:16.425Z,32.45
2022-09-22T10:34:51.889Z,30.85
2022-09-22T10:37:29.664Z,28.93
2022-09-22T10:40:03.401Z,27.29
2022-09-22T10:42:37.796Z,26.34
2022-09-22T10:45:12.937Z,25.70
2022-09-22T10:51:25.616Z,24.02
2022-09-22T10:54:19.013Z,23.38
2022-09-22T10:56:53.436Z,24.31
2022-09-22T10:59:46.088Z,28.05
2022-09-22T11:02:48.815Z,26.76
2022-09-22T11:05:48.703Z,25.55
2022-09-22T11:08:53.310Z,23.96
2022-09-22T11:11:55.985Z,22.33
2022-09-22T11:15:00.179Z,21.39
2022-09-22T11:17:55.404Z,20.53
2022-09-22T11:20:34.728Z,20.21
2022-09-22T11:23:26.639Z,19.67
2022-09-22T11:26:35.169Z,19.05
2022-09-22T11:29:54.038Z,18.84
2022-09-22T11:33:08.584Z,18.68
2022-09-22T11:36:02.895Z,18.60
2022-09-22T11:38:59.824Z,18.82
2022-09-22T11:41:37.311Z,19.21
2022-09-22T11:44:24.329Z,20.00
2022-09-22T11:46:54.905Z,22.17
2022-09-22T11:49:31.434Z,30.24
2022-09-22T11:52:17.725Z,36.03
2022-09-22T11:55:23.495Z,33.70
2022-09-22T11:57:59.677Z,31.55
2022-09-22T12:00:37.101Z,29.49
2022-09-22T12:03:17.146Z,27.09
2022-09-22T12:06:03.876Z,25.66
2022-09-22T12:08:43.312Z,24.80
2022-09-22T12:11:14.982Z,24.01
2022-09-22T12:13:48.439Z,23.06
2022-09-22T12:16:42.089Z,21.59
2022-09-22T12:19:25.274Z,20.47
2022-09-22T12:22:21.868Z,20.00
2022-09-22T12:24:49.945Z,19.73
2022-09-22T12:27:23.923Z,19.43
2022-09-22T12:30:06.933Z,19.18
2022-09-22T12:32:42.754Z,19.19
2022-09-22T12:35:31.027Z,19.27
2022-09-22T12:38:02.667Z,19.59
2022-09-22T12:40:38.062Z,20.19
2022-09-22T12:43:06.232Z,20.98
2022-09-22T12:45:42.358Z,21.56
2022-09-22T12:48:29.114Z,21.84
2022-09-22T12:51:34.464Z,22.03
2022-09-22T12:54:23.558Z,22.51
2022-09-22T12:56:53.506Z,23.07
2022-09-22T12:59:35.971Z,23.50
2022-09-22T13:02:15.969Z,24.25
2022-09-22T13:04:49.677Z,27.86
2022-09-22T13:07:49.367Z,28.68
2022-09-22T13:10:25.203Z,32.68
2022-09-22T13:13:24.201Z,34.73
2022-09-22T13:15:57.442Z,30.87
2022-09-22T13:18:42.408Z,27.67
2022-09-22T13:21:12.738Z,25.97
2022-09-22T13:23:51.890Z,24.47
2022-09-22T13:26:27.644Z,23.38
2022-09-22T13:29:19.851Z,22.14
2022-09-22T13:31:57.943Z,21.37
2022-09-22T13:34:35.698Z,20.63
2022-09-22T13:37:18.014Z,20.23
2022-09-22T13:39:50.084Z,20.21
2022-09-22T13:42:31.460Z,20.10
2022-09-22T13:45:24.091Z,20.33
2022-09-22T13:47:57.346Z,20.43
2022-09-22T13:50:26.145Z,20.40
2022-09-22T13:52:54.452Z,20.32
2022-09-22T13:55:32.236Z,20.26
2022-09-22T13:58:03.340Z,20.06
2022-09-22T14:01:15.281Z,19.81
2022-09-22T14:03:44.110Z,19.78
2022-09-22T14:06:24.666Z,19.68
2022-09-22T14:08:53.509Z,19.74
2022-09-22T14:11:33.586Z,19.81
2022-09-22T14:14:02.743Z,20.05
2022-09-22T14:16:52.098Z,20.05
2022-09-22T14:19:34.213Z,20.16
2022-09-22T14:22:15.157Z,20.46
2022-09-22T14:24:52.316Z,21.06
2022-09-22T14:27:36.458Z,20.81
2022-09-22T14:30:05.406Z,22.82
2022-09-22T14:32:48.214Z,25.39
2022-09-22T14:35:30.330Z,29.00
2022-09-22T14:38:09.605Z,30.98
2022-09-22T14:40:54.200Z,32.79
2022-09-22T14:43:26.330Z,31.85
2022-09-22T14:46:08.688Z,28.17
2022-09-22T14:48:37.003Z,26.18
2022-09-22T14:51:20.463Z,24.60
2022-09-22T14:54:01.622Z,23.81
2022-09-22T14:56:34.281Z,23.56
2022-09-22T14:59:27.624Z,22.77
2022-09-22T15:02:15.489Z,22.30
2022-09-22T15:04:52.951Z,21.83
2022-09-22T15:07:34.608Z,21.26
2022-09-22T15:10:17.772Z,20.96
2022-09-22T15:12:49.373Z,20.74
2022-09-22T15:15:22.921Z,20.47
2022-09-22T15:18:16.762Z,20.42
2022-09-22T15:20:52.853Z,20.16
2022-09-22T15:23:41.335Z,19.99
2022-09-22T15:26:25.588Z,19.84
2022-09-22T15:28:56.226Z,19.70
2022-09-22T15:31:27.031Z,19.37
2022-09-22T15:34:02.850Z,19.27
2022-09-22T15:36:33.150Z,19.12
2022-09-22T15:39:19.462Z,18.87
2022-09-22T15:41:49.863Z,18.69
2022-09-22T15:44:17.761Z,18.38
2022-09-22T15:46:51.466Z,18.12
2022-09-22T15:49:26.256Z,17.95
2022-09-22T15:51:56.703Z,17.78
2022-09-22T15:54:26.342Z,17.49
2022-09-22T15:56:56.555Z,17.34
2022-09-22T15:59:33.270Z,17.14
2022-09-22T16:02:02.769Z,17.05
2022-09-22T16:04:31.602Z,16.95
2022-09-22T16:07:04.867Z,16.84
2022-09-22T16:09:38.722Z,16.78
2022-09-22T16:12:11.131Z,16.78
2022-09-22T16:14:41.056Z,16.71
2022-09-22T16:17:08.566Z,16.50
2022-09-22T16:19:35.897Z,16.25
2022-09-22T16:22:03.428Z,16.09
2022-09-22T16:24:31.047Z,15.81
2022-09-22T16:26:58.298Z,15.53
2022-09-22T16:29:25.857Z,15.31
2022-09-22T16:31:53.128Z,15.28
2022-09-22T16:34:20.395Z,15.17
2022-09-22T16:36:47.774Z,15.11
2022-09-22T16:39:15.011Z,15.08
2022-09-22T16:41:46.838Z,15.02
2022-09-22T16:44:15.713Z,14.93
2022-09-22T16:46:43.133Z,14.86
2022-09-22T16:49:15.816Z,14.88
2022-09-22T16:51:48.908Z,14.90
2022-09-22T16:54:18.834Z,14.90
2022-09-22T16:56:49.813Z,14.90
2022-09-22T16:59:19.985Z,14.89
2022-09-22T17:01:48.961Z,14.84
2022-09-22T17:04:19.150Z,14.78
2022-09-22T17:06:47.472Z,14.68
2022-09-22T17:09:16.911Z,14.59
2022-09-22T17:11:46.872Z,14.47
2022-09-22T17:14:23.189Z,14.42
2022-09-22T17:16:54.276Z,14.35
2022-09-22T17:19:26.465Z,14.28
2022-09-22T17:21:56.334Z,14.23
2022-09-22T17:24:25.830Z,14.20
2022-09-22T17:26:57.171Z,14.15
2022-09-22T17:29:32.730Z,14.11
2022-09-22T17:32:05.873Z,14.10
2022-09-22T17:34:35.438Z,14.08
2022-09-22T17:37:04.888Z,14.05
2022-09-22T17:39:32.474Z,14.02
2022-09-22T17:42:00.306Z,13.98
2022-09-22T17:44:31.060Z,13.92
2022-09-22T17:47:16.580Z,13.86
2022-09-22T17:50:02.740Z,13.78
2022-09-22T17:52:30.122Z,13.73
2022-09-22T17:55:07.671Z,13.70
2022-09-22T17:57:45.475Z,13.64
2022-09-22T18:00:21.269Z,13.52
2022-09-22T18:02:52.869Z,13.47
2022-09-22T18:05:26.886Z,13.41
2022-09-22T18:07:58.594Z,13.38
2022-09-22T18:10:32.577Z,13.37
2022-09-22T18:13:02.115Z,13.32
2022-09-22T18:15:30.723Z,13.28
2022-09-22T18:17:58.426Z,13.22
2022-09-22T18:20:27.714Z,13.18
2022-09-22T18:22:56.144Z,13.14
2022-09-22T18:25:25.810Z,13.12
2022-09-22T18:27:54.707Z,13.01
2022-09-22T18:30:22.399Z,12.98
2022-09-22T18:32:49.820Z,12.93
2022-09-22T18:35:17.469Z,12.90
2022-09-22T18:37:44.944Z,12.85
2022-09-22T18:40:12.738Z,12.78
2022-09-22T18:42:41.553Z,12.73
2022-09-22T18:45:11.211Z,12.72
2022-09-22T18:47:40.992Z,12.68
2022-09-22T18:50:09.703Z,12.66
2022-09-22T18:52:42.631Z,12.64
2022-09-22T18:55:18.873Z,12.64
2022-09-22T18:57:47.904Z,12.64
2022-09-22T19:00:16.471Z,12.62
2022-09-22T19:02:43.790Z,12.61
2022-09-22T19:05:11.417Z,12.60
2022-09-22T19:07:42.415Z,12.59
2022-09-22T19:10:18.944Z,12.56
2022-09-22T19:12:46.555Z,12.55
2022-09-22T19:15:18.973Z,12.55
2022-09-22T19:17:49.689Z,12.58
2022-09-22T19:20:23.445Z,12.57
2022-09-22T19:22:52.594Z,12.60
2022-09-22T19:25:22.259Z,12.58
2022-09-22T19:27:53.614Z,12.55
2022-09-22T19:30:25.726Z,12.50
2022-09-22T19:32:56.101Z,12.42
2022-09-22T19:35:23.691Z,12.37
2022-09-22T19:37:52.112Z,12.34
2022-09-22T19:40:24.546Z,12.31
2022-09-22T19:42:53.790Z,12.30
2022-09-22T19:45:23.964Z,12.28
2022-09-22T19:47:53.085Z,12.23
2022-09-22T19:50:20.505Z,12.20
2022-09-22T19:52:47.924Z,12.18
2022-09-22T19:55:18.925Z,12.18
2022-09-22T19:57:48.888Z,12.16
2022-09-22T20:00:17.737Z,12.17
2022-09-22T20:02:45.914Z,12.13
2022-09-22T20:05:21.918Z,12.09
2022-09-22T20:07:50.037Z,12.12
2022-09-22T20:10:22.661Z,12.11
2022-09-22T20:12:51.942Z,12.07
2022-09-22T20:15:20.340Z,12.06
2022-09-22T20:17:47.739Z,12.01
2022-09-22T20:20:25.316Z,11.96
2022-09-22T20:23:02.569Z,11.94
2022-09-22T20:25:32.588Z,11.92
2022-09-22T20:28:00.458Z,11.87
2022-09-22T20:30:27.866Z,11.85
2022-09-22T20:32:55.119Z,11.85
2022-09-22T20:35:22.789Z,11.82
2022-09-22T20:37:51.661Z,11.83
2022-09-22T20:40:21.605Z,11.85
2022-09-22T20:42:51.305Z,11.87
2022-09-22T20:45:20.986Z,11.87
2022-09-22T20:47:48.407Z,11.89
2022-09-22T20:50:15.868Z,11.85
2022-09-22T20:52:43.077Z,11.87
2022-09-22T20:55:13.261Z,11.88
2022-09-22T20:57:41.296Z,11.89
2022-09-22T21:00:09.958Z,11.88
2022-09-22T21:02:37.431Z,11.85
2022-09-22T21:05:05.281Z,11.88
2022-09-22T21:07:33.209Z,11.85
2022-09-22T21:10:19.055Z,11.87
2022-09-22T21:12:46.496Z,11.83
2022-09-22T21:15:14.571Z,11.81
2022-09-22T21:17:44.184Z,11.79
2022-09-22T21:20:11.668Z,11.77
2022-09-22T21:22:38.956Z,11.78
2022-09-22T21:25:07.460Z,11.81
2022-09-22T21:27:35.884Z,11.81
2022-09-22T21:30:03.207Z,11.77
2022-09-22T21:32:31.294Z,11.77
2022-09-22T21:34:58.647Z,11.78
2022-09-22T21:37:27.097Z,11.81
2022-09-22T21:39:54.250Z,11.82
2022-09-22T21:42:21.755Z,11.83
2022-09-22T21:44:48.989Z,11.83
2022-09-22T21:47:16.175Z,11.83
2022-09-22T21:49:43.633Z,11.78
2022-09-22T21:52:10.807Z,11.77
2022-09-22T21:54:37.962Z,11.72
2022-09-22T21:57:05.619Z,11.75
2022-09-22T21:59:32.837Z,11.76
2022-09-22T22:02:01.612Z,11.73
2022-09-22T22:04:30.486Z,11.69
2022-09-22T22:06:57.640Z,11.68
2022-09-22T22:09:25.801Z,11.64
2022-09-22T22:11:59.430Z,11.56
2022-09-22T22:14:32.109Z,11.56
2022-09-22T22:17:02.206Z,11.55
2022-09-22T22:19:30.008Z,11.49
2022-09-22T22:21:57.215Z,11.52
2022-09-22T22:24:29.014Z,11.55
2022-09-22T22:27:01.448Z,11.45
2022-09-22T22:29:32.008Z,11.43
2022-09-22T22:31:59.391Z,11.42
2022-09-22T22:34:28.032Z,11.44
2022-09-22T22:36:58.281Z,11.44
2022-09-22T22:39:25.617Z,11.42
2022-09-22T22:41:55.132Z,11.41
2022-09-22T22:44:23.097Z,11.36
2022-09-22T22:46:50.910Z,11.37
2022-09-22T22:49:18.432Z,11.36
2022-09-22T22:51:45.992Z,11.35
2022-09-22T22:54:14.531Z,11.37
2022-09-22T22:56:43.720Z,11.35
2022-09-22T22:59:12.382Z,11.31
2022-09-22T23:01:40.642Z,11.29
2022-09-22T23:04:11.259Z,11.27
2022-09-22T23:06:44.215Z,11.29
2022-09-22T23:09:15.576Z,11.27
2022-09-22T23:11:45.680Z,11.30
2022-09-22T23:14:15.993Z,11.31
2022-09-22T23:16:47.112Z,11.32
2022-09-22T23:19:17.895Z,11.35
2022-09-22T23:21:46.516Z,11.35
2022-09-22T23:24:17.168Z,11.33
2022-09-22T23:26:45.901Z,11.32
2022-09-22T23:29:13.639Z,11.31
2022-09-22T23:31:42.465Z,11.34
2022-09-22T23:34:09.672Z,11.32
2022-09-22T23:36:37.148Z,11.30
2022-09-22T23:39:04.875Z,11.33
2022-09-22T23:41:34.993Z,11.32
2022-09-22T23:44:03.749Z,11.34
2022-09-22T23:46:31.920Z,11.36
2022-09-22T23:49:00.344Z,11.40
2022-09-22T23:51:28.556Z,11.37
2022-09-22T23:53:56.446Z,11.36
2022-09-22T23:56:24.834Z,11.34
2022-09-22T23:58:52.973Z,11.35
